Time;durP1;ratioP1;P1;durP2;ratioP2;P2;SDS_P1;SDS_P2;PMS_P1;PMS_P2;Temp;Humidity;BMP_temperature;BMP_pressure;BME280_temperature;BME280_humidity;BME280_pressure;Samples;Min_cycle;Max_cycle;Signal;HPM_P1;HPM_P2
2022/01/17 00:00:53;;;;;;;19.80;13.65;;;;;;;;;;5104740;28;20215;-66
2022/01/17 00:03:24;;;;;;;18.67;13.13;;;;;;;;;;5103699;28;20438;-66
2022/01/17 00:05:51;;;;;;;18.10;13.15;;;;;;;;;;5104324;28;20200;-66
2022/01/17 00:08:17;;;;;;;21.58;13.18;;;;;;;;;;5104581;28;20203;-66
2022/01/17 00:10:43;;;;;;;15.60;11.60;;;;;;;;;;5107444;28;20188;-68
2022/01/17 00:13:14;;;;;;;17.92;12.23;;;;;;;;;;5108899;28;20192;-68
2022/01/17 00:15:48;;;;;;;18.65;12.82;;;;;;;;;;5109152;28;20216;-68
2022/01/17 00:18:27;;;;;;;15.63;11.85;;;;;;;;;;5109726;28;20184;-68
2022/01/17 00:20:56;;;;;;;18.70;12.63;;;;;;;;;;5109512;28;20219;-68
2022/01/17 00:23:23;;;;;;;17.35;12.45;;;;;;;;;;5104623;28;20210;-66
2022/01/17 00:25:49;;;;;;;15.18;11.93;;;;;;;;;;5104024;28;20204;-66
2022/01/17 00:28:16;;;;;;;15.60;11.60;;;;;;;;;;5104341;28;20391;-68
2022/01/17 00:30:42;;;;;;;17.10;11.55;;;;;;;;;;5109025;28;20191;-68
2022/01/17 00:33:09;;;;;;;16.05;11.88;;;;;;;;;;5109605;28;20195;-68
2022/01/17 00:35:36;;;;;;;17.75;12.82;;;;;;;;;;5109072;28;20196;-68
2022/01/17 00:38:03;;;;;;;18.05;12.70;;;;;;;;;;5109568;28;20203;-68
2022/01/17 00:40:30;;;;;;;17.35;11.88;;;;;;;;;;5108340;28;20219;-67
2022/01/17 00:42:56;;;;;;;17.27;11.65;;;;;;;;;;5103880;28;20195;-66
2022/01/17 00:45:27;;;;;;;14.95;11.05;;;;;;;;;;5103641;28;20215;-64
2022/01/17 00:47:55;;;;;;;16.20;12.15;;;;;;;;;;5104089;28;20196;-65
2022/01/17 00:50:21;;;;;;;18.70;11.90;;;;;;;;;;5104024;28;20191;-64
2022/01/17 00:52:48;;;;;;;18.83;12.27;;;;;;;;;;5103838;28;20499;-64
2022/01/17 00:55:16;;;;;;;15.35;12.13;;;;;;;;;;5103739;28;20196;-66
2022/01/17 00:57:42;;;;;;;18.30;12.05;;;;;;;;;;5103776;28;20196;-65
2022/01/17 01:00:09;;;;;;;16.67;11.98;;;;;;;;;;5103715;28;20219;-65
2022/01/17 01:02:36;;;;;;;15.88;12.32;;;;;;;;;;5103384;28;20204;-65
2022/01/17 01:05:02;;;;;;;16.70;11.82;;;;;;;;;;5103314;28;20197;-65
2022/01/17 01:07:29;;;;;;;16.60;11.65;;;;;;;;;;5103407;28;20202;-65
2022/01/17 01:10:02;;;;;;;15.73;11.35;;;;;;;;;;5103377;28;20191;-65
2022/01/17 01:12:30;;;;;;;19.05;12.63;;;;;;;;;;5102824;28;20262;-65
2022/01/17 01:14:57;;;;;;;16.17;11.90;;;;;;;;;;5103190;28;20388;-65
2022/01/17 01:17:33;;;;;;;15.70;11.82;;;;;;;;;;5103186;28;20195;-65
2022/01/17 01:20:08;;;;;;;16.83;11.93;;;;;;;;;;5102982;28;20219;-65
2022/01/17 01:28:05;;;;;;;14.77;11.07;;;;;;;;;;5108096;28;20222;-67
2022/01/17 01:30:34;;;;;;;16.73;12.15;;;;;;;;;;5108836;28;20259;-67
2022/01/17 01:33:00;;;;;;;17.52;12.30;;;;;;;;;;5109264;28;20206;-68
2022/01/17 01:35:30;;;;;;;16.52;12.50;;;;;;;;;;5108216;28;20196;-67
2022/01/17 01:37:59;;;;;;;16.98;11.20;;;;;;;;;;5107893;28;20196;-67
2022/01/17 01:40:25;;;;;;;13.93;11.10;;;;;;;;;;5107936;28;20215;-67
2022/01/17 01:42:53;;;;;;;14.48;11.27;;;;;;;;;;5107846;28;20504;-67
2022/01/17 01:45:21;;;;;;;14.65;10.75;;;;;;;;;;5107476;28;20269;-67
2022/01/17 01:47:48;;;;;;;14.45;10.60;;;;;;;;;;5108955;28;20492;-67
2022/01/17 01:50:15;;;;;;;19.83;11.77;;;;;;;;;;5128191;28;20213;-67
2022/01/17 01:52:42;;;;;;;13.32;10.95;;;;;;;;;;5128349;28;20209;-67
2022/01/17 01:55:09;;;;;;;14.85;10.98;;;;;;;;;;5127892;28;20202;-67
2022/01/17 01:57:35;;;;;;;14.48;10.85;;;;;;;;;;5128277;28;20218;-67
2022/01/17 02:00:02;;;;;;;15.13;11.25;;;;;;;;;;5127463;28;20214;-67
2022/01/17 02:02:30;;;;;;;15.35;10.85;;;;;;;;;;5127294;28;20202;-67
2022/01/17 02:04:56;;;;;;;14.65;11.27;;;;;;;;;;5107966;28;20192;-67
2022/01/17 02:07:23;;;;;;;15.70;11.70;;;;;;;;;;5107633;28;20203;-67
2022/01/17 02:09:50;;;;;;;16.15;11.27;;;;;;;;;;5106921;28;20198;-68
2022/01/17 02:12:20;;;;;;;14.48;10.77;;;;;;;;;;5107657;28;20203;-67
2022/01/17 02:14:47;;;;;;;12.90;10.70;;;;;;;;;;5106895;28;20196;-67
2022/01/17 02:17:13;;;;;;;14.23;11.07;;;;;;;;;;5107354;28;20203;-67
2022/01/17 02:19:45;;;;;;;14.48;11.32;;;;;;;;;;5109465;28;20242;-67
2022/01/17 02:22:13;;;;;;;13.77;11.00;;;;;;;;;;5126100;28;20187;-64
2022/01/17 02:24:40;;;;;;;15.15;11.35;;;;;;;;;;5127013;28;20195;-64
2022/01/17 02:27:06;;;;;;;14.73;10.82;;;;;;;;;;5127107;28;20195;-64
2022/01/17 02:29:32;;;;;;;14.52;10.73;;;;;;;;;;5126911;28;20498;-64
2022/01/17 02:31:59;;;;;;;15.40;10.88;;;;;;;;;;5126972;28;20191;-64
2022/01/17 02:34:25;;;;;;;15.13;11.85;;;;;;;;;;5127104;28;20229;-64
2022/01/17 02:36:52;;;;;;;16.63;11.85;;;;;;;;;;5125431;28;20222;-64
2022/01/17 02:39:19;;;;;;;18.25;12.18;;;;;;;;;;5125188;28;20191;-67
2022/01/17 02:41:49;;;;;;;15.70;11.70;;;;;;;;;;5126811;28;20227;-64
2022/01/17 02:44:15;;;;;;;15.45;11.38;;;;;;;;;;5126671;28;20237;-64
2022/01/17 02:46:42;;;;;;;16.80;12.02;;;;;;;;;;5126492;28;20195;-64
2022/01/17 02:49:09;;;;;;;17.80;12.23;;;;;;;;;;5126647;28;20195;-64
2022/01/17 02:51:36;;;;;;;17.90;11.88;;;;;;;;;;5107486;28;20646;-64
2022/01/17 02:54:02;;;;;;;17.77;12.82;;;;;;;;;;5106000;28;20196;-64
2022/01/17 02:56:30;;;;;;;16.58;12.25;;;;;;;;;;5106802;28;20204;-67
2022/01/17 02:58:57;;;;;;;17.00;11.95;;;;;;;;;;5111060;28;20204;-67
2022/01/17 03:01:24;;;;;;;16.95;12.15;;;;;;;;;;5110875;28;20222;-67
2022/01/17 03:03:50;;;;;;;15.48;12.48;;;;;;;;;;5111459;28;20203;-67
2022/01/17 03:06:17;;;;;;;15.27;11.77;;;;;;;;;;5129593;28;20202;-67
2022/01/17 03:08:46;;;;;;;15.68;11.80;;;;;;;;;;5128985;28;20202;-64
2022/01/17 03:11:13;;;;;;;17.17;12.40;;;;;;;;;;5126237;28;20191;-64
2022/01/17 03:13:41;;;;;;;16.83;11.75;;;;;;;;;;5126366;28;20202;-66
2022/01/17 03:16:09;;;;;;;17.02;12.25;;;;;;;;;;5127118;28;20202;-64
2022/01/17 03:18:38;;;;;;;17.50;11.93;;;;;;;;;;5126289;28;20218;-64
2022/01/17 03:21:05;;;;;;;17.73;13.13;;;;;;;;;;5106496;28;20535;-64
2022/01/17 03:23:32;;;;;;;14.48;11.85;;;;;;;;;;5109188;28;20195;-65
2022/01/17 03:25:58;;;;;;;16.52;12.40;;;;;;;;;;5106081;28;20384;-64
2022/01/17 03:28:26;;;;;;;19.95;13.77;;;;;;;;;;5118201;28;20195;-64
2022/01/17 03:30:54;;;;;;;14.82;12.20;;;;;;;;;;5128607;28;20250;-67
2022/01/17 03:33:20;;;;;;;15.52;12.02;;;;;;;;;;5130913;28;20202;-67
2022/01/17 03:35:47;;;;;;;18.15;13.15;;;;;;;;;;5130657;28;20496;-67
2022/01/17 03:38:16;;;;;;;21.27;12.85;;;;;;;;;;5126244;28;20202;-67
2022/01/17 03:40:45;;;;;;;17.33;12.65;;;;;;;;;;5126913;28;20211;-67
2022/01/17 03:43:11;;;;;;;19.40;12.70;;;;;;;;;;5123742;28;20435;-67
2022/01/17 03:45:37;;;;;;;17.17;11.02;;;;;;;;;;5108231;28;20223;-65
2022/01/17 03:48:06;;;;;;;17.63;12.00;;;;;;;;;;5105394;28;20218;-65
2022/01/17 03:50:32;;;;;;;16.27;11.50;;;;;;;;;;5110126;28;20191;-66
2022/01/17 03:52:59;;;;;;;17.48;12.10;;;;;;;;;;5110111;28;20519;-67
2022/01/17 03:55:27;;;;;;;12.93;11.32;;;;;;;;;;5109979;28;20196;-67
2022/01/17 03:57:54;;;;;;;14.43;11.82;;;;;;;;;;5109805;28;20198;-67
2022/01/17 04:00:22;;;;;;;16.55;11.43;;;;;;;;;;5109512;28;20196;-66
2022/01/17 04:02:49;;;;;;;15.00;11.20;;;;;;;;;;5104896;28;20526;-67
2022/01/17 04:05:17;;;;;;;15.48;12.45;;;;;;;;;;5104526;28;20195;-67
2022/01/17 04:07:43;;;;;;;16.58;12.60;;;;;;;;;;5105265;28;20202;-67
2022/01/17 04:10:10;;;;;;;14.85;12.05;;;;;;;;;;5108932;28;20238;-67
2022/01/17 04:12:37;;;;;;;17.02;11.57;;;;;;;;;;5123724;28;20202;-65
2022/01/17 04:15:03;;;;;;;13.98;10.88;;;;;;;;;;5125064;28;20383;-64
2022/01/17 04:17:30;;;;;;;14.38;11.45;;;;;;;;;;5124957;28;20194;-64
2022/01/17 04:20:03;;;;;;;16.73;11.73;;;;;;;;;;5124800;28;20229;-64
2022/01/17 04:22:34;;;;;;;14.88;12.15;;;;;;;;;;5123115;28;20203;-64
2022/01/17 04:25:00;;;;;;;14.65;11.45;;;;;;;;;;5124641;28;20191;-65
2022/01/17 04:27:27;;;;;;;16.60;12.25;;;;;;;;;;5125013;28;20202;-65
2022/01/17 04:29:53;;;;;;;15.95;12.27;;;;;;;;;;5125101;28;20195;-65
2022/01/17 04:32:20;;;;;;;16.60;11.35;;;;;;;;;;5124857;28;20229;-65
2022/01/17 04:34:46;;;;;;;16.88;11.75;;;;;;;;;;5124419;28;20194;-65
2022/01/17 04:37:13;;;;;;;16.00;11.73;;;;;;;;;;5112171;28;20223;-65
2022/01/17 04:39:40;;;;;;;16.85;11.65;;;;;;;;;;5104289;28;20196;-65
2022/01/17 04:42:12;;;;;;;15.68;11.90;;;;;;;;;;5119983;28;20215;-67
2022/01/17 04:47:22;;;;;;;14.82;11.15;;;;;;;;;;5125191;28;20194;-65
2022/01/17 04:49:49;;;;;;;14.73;10.90;;;;;;;;;;5124467;28;20195;-65
2022/01/17 04:52:15;;;;;;;17.77;11.63;;;;;;;;;;5124555;28;20191;-65
2022/01/17 04:54:45;;;;;;;16.30;11.57;;;;;;;;;;5123891;28;20203;-65
2022/01/17 04:57:12;;;;;;;17.25;12.32;;;;;;;;;;5126901;28;20503;-67
2022/01/17 04:59:40;;;;;;;14.75;11.38;;;;;;;;;;5127306;28;20199;-67
2022/01/17 05:02:06;;;;;;;15.52;11.90;;;;;;;;;;5127975;28;20222;-67
2022/01/17 05:04:33;;;;;;;15.00;10.93;;;;;;;;;;5128075;28;20503;-67
2022/01/17 05:06:59;;;;;;;15.15;11.40;;;;;;;;;;5125554;28;20195;-67
2022/01/17 05:09:26;;;;;;;16.42;12.25;;;;;;;;;;5118320;28;20195;-67
2022/01/17 05:11:54;;;;;;;14.25;10.77;;;;;;;;;;5103604;28;20214;-67
2022/01/17 05:14:20;;;;;;;17.35;12.90;;;;;;;;;;5103488;28;20195;-67
2022/01/17 05:16:54;;;;;;;15.77;11.45;;;;;;;;;;5102968;28;20257;-65
2022/01/17 05:22:05;;;;;;;16.08;11.45;;;;;;;;;;5103227;28;20222;-67
2022/01/17 05:24:31;;;;;;;13.90;11.48;;;;;;;;;;5104168;28;20229;-67
2022/01/17 05:26:59;;;;;;;15.38;11.63;;;;;;;;;;5122905;28;20233;-65
2022/01/17 05:29:25;;;;;;;18.02;12.60;;;;;;;;;;5123168;28;20203;-66
2022/01/17 05:31:52;;;;;;;18.27;12.45;;;;;;;;;;5123699;28;20379;-65
2022/01/17 05:34:18;;;;;;;23.08;13.55;;;;;;;;;;5123201;28;20202;-65
2022/01/17 05:36:44;;;;;;;22.42;13.05;;;;;;;;;;5124305;28;20195;-66
2022/01/17 05:39:11;;;;;;;20.95;12.77;;;;;;;;;;5127143;28;20202;-67
2022/01/17 05:41:37;;;;;;;28.17;13.63;;;;;;;;;;5127328;28;20215;-69
2022/01/17 05:44:05;;;;;;;23.92;13.07;;;;;;;;;;5127474;28;20202;-67
2022/01/17 05:46:32;;;;;;;22.63;14.10;;;;;;;;;;5127007;28;20421;-65
2022/01/17 05:48:58;;;;;;;20.08;13.30;;;;;;;;;;5123087;28;20195;-64
2022/01/17 05:51:24;;;;;;;18.25;11.93;;;;;;;;;;5122920;28;20499;-65
2022/01/17 05:53:51;;;;;;;17.95;12.25;;;;;;;;;;5123388;28;20487;-65
2022/01/17 05:56:17;;;;;;;16.92;12.32;;;;;;;;;;5122491;28;20195;-65
2022/01/17 05:58:44;;;;;;;18.05;11.88;;;;;;;;;;5122892;28;20195;-65
2022/01/17 06:01:13;;;;;;;18.85;12.52;;;;;;;;;;5122883;28;20534;-65
2022/01/17 06:03:39;;;;;;;17.15;12.45;;;;;;;;;;5122987;28;20195;-64
2022/01/17 06:06:06;;;;;;;14.20;11.35;;;;;;;;;;5123467;28;20195;-66
2022/01/17 06:08:32;;;;;;;14.07;11.38;;;;;;;;;;5122939;28;20195;-64
2022/01/17 06:10:59;;;;;;;17.75;12.68;;;;;;;;;;5122616;28;20195;-65
2022/01/17 06:13:25;;;;;;;14.52;11.48;;;;;;;;;;5122725;28;20202;-65
2022/01/17 06:15:52;;;;;;;15.80;11.45;;;;;;;;;;5122715;28;20503;-67
2022/01/17 06:18:20;;;;;;;17.67;11.00;;;;;;;;;;5128425;28;20195;-67
2022/01/17 06:20:46;;;;;;;16.02;11.60;;;;;;;;;;5127224;28;20202;-67
2022/01/17 06:23:12;;;;;;;16.88;12.70;;;;;;;;;;5125033;28;20195;-64
2022/01/17 06:25:39;;;;;;;19.35;12.00;;;;;;;;;;5122299;28;20209;-64
2022/01/17 06:28:05;;;;;;;15.00;12.27;;;;;;;;;;5122752;28;20380;-64
2022/01/17 06:30:31;;;;;;;15.07;12.13;;;;;;;;;;5122537;28;20199;-64
2022/01/17 06:32:58;;;;;;;15.82;12.07;;;;;;;;;;5122719;28;20374;-64
2022/01/17 06:35:26;;;;;;;14.73;11.82;;;;;;;;;;5122262;28;20199;-64
2022/01/17 06:37:52;;;;;;;16.00;11.40;;;;;;;;;;5124876;28;20191;-67
2022/01/17 06:40:19;;;;;;;18.73;12.27;;;;;;;;;;5126915;28;20195;-67
2022/01/17 06:42:45;;;;;;;17.00;12.30;;;;;;;;;;5126451;28;20222;-67
2022/01/17 06:45:13;;;;;;;17.38;11.98;;;;;;;;;;5126267;28;20215;-67
2022/01/17 06:47:40;;;;;;;16.58;12.10;;;;;;;;;;5125965;28;20433;-67
2022/01/17 06:50:08;;;;;;;14.32;11.50;;;;;;;;;;5122436;28;20503;-67
2022/01/17 06:52:36;;;;;;;17.17;13.13;;;;;;;;;;5123257;28;20303;-69
2022/01/17 06:55:02;;;;;;;18.10;12.98;;;;;;;;;;5122290;28;20195;-69
2022/01/17 06:57:29;;;;;;;18.83;13.50;;;;;;;;;;5122550;28;20195;-69
2022/01/17 06:59:55;;;;;;;16.13;13.25;;;;;;;;;;5122313;28;20202;-69
2022/01/17 07:02:22;;;;;;;21.02;13.45;;;;;;;;;;5122151;28;20225;-71
2022/01/17 07:04:48;;;;;;;21.60;13.80;;;;;;;;;;5122322;28;20195;-71
2022/01/17 07:07:15;;;;;;;19.42;13.82;;;;;;;;;;5122376;28;20195;-71
2022/01/17 07:09:42;;;;;;;18.45;13.18;;;;;;;;;;5124394;28;20512;-71
2022/01/17 07:12:09;;;;;;;16.52;12.65;;;;;;;;;;5126280;28;20264;-71
2022/01/17 07:14:41;;;;;;;19.42;12.85;;;;;;;;;;5125968;28;20202;-70
2022/01/17 07:17:07;;;;;;;19.77;12.80;;;;;;;;;;5126034;28;20195;-69
2022/01/17 07:19:34;;;;;;;17.17;12.07;;;;;;;;;;5125809;28;20203;-69
2022/01/17 07:22:03;;;;;;;19.67;12.88;;;;;;;;;;5125886;28;20519;-71
2022/01/17 07:24:29;;;;;;;16.75;11.88;;;;;;;;;;5125912;28;20195;-69
2022/01/17 07:26:57;;;;;;;21.08;12.80;;;;;;;;;;5126160;28;20191;-70
2022/01/17 07:29:24;;;;;;;17.95;13.02;;;;;;;;;;5125840;28;20263;-70
2022/01/17 07:31:50;;;;;;;19.85;12.65;;;;;;;;;;5126085;28;20191;-69
2022/01/17 07:34:17;;;;;;;19.45;12.52;;;;;;;;;;5125437;28;20517;-69
2022/01/17 07:36:43;;;;;;;19.73;12.18;;;;;;;;;;5125347;28;20236;-71
2022/01/17 07:39:10;;;;;;;21.63;12.95;;;;;;;;;;5125766;28;20495;-69
2022/01/17 07:41:36;;;;;;;20.45;13.57;;;;;;;;;;5125636;28;20237;-68
2022/01/17 07:44:07;;;;;;;18.17;13.38;;;;;;;;;;5125516;28;20195;-68
2022/01/17 07:46:36;;;;;;;20.42;13.32;;;;;;;;;;5125079;28;20215;-68
2022/01/17 07:49:10;;;;;;;19.83;12.75;;;;;;;;;;5125494;28;20195;-68
2022/01/17 07:51:38;;;;;;;15.95;11.73;;;;;;;;;;5125509;28;20480;-68
2022/01/17 07:54:04;;;;;;;19.05;12.27;;;;;;;;;;5125358;28;20383;-68
2022/01/17 07:56:31;;;;;;;18.92;12.45;;;;;;;;;;5124999;28;20199;-68
2022/01/17 07:58:57;;;;;;;18.05;12.77;;;;;;;;;;5125123;28;20386;-68
2022/01/17 08:01:25;;;;;;;18.20;12.25;;;;;;;;;;5124853;28;20195;-68
2022/01/17 08:03:52;;;;;;;17.40;11.43;;;;;;;;;;5124901;28;20195;-68
2022/01/17 08:06:18;;;;;;;13.27;10.23;;;;;;;;;;5124509;28;20203;-71
2022/01/17 08:08:45;;;;;;;18.50;10.90;;;;;;;;;;5124301;28;20194;-71
2022/01/17 08:11:11;;;;;;;12.52;10.43;;;;;;;;;;5124921;28;20409;-71
2022/01/17 08:13:37;;;;;;;12.52;10.63;;;;;;;;;;5124568;28;20191;-69
2022/01/17 08:16:04;;;;;;;15.95;11.85;;;;;;;;;;5124284;28;20202;-69
2022/01/17 08:18:32;;;;;;;19.45;12.40;;;;;;;;;;5124781;28;20202;-71
2022/01/17 08:20:59;;;;;;;16.55;11.20;;;;;;;;;;5124792;28;20203;-71
2022/01/17 08:23:25;;;;;;;17.33;11.00;;;;;;;;;;5124776;28;20211;-70
2022/01/17 08:25:52;;;;;;;17.85;10.55;;;;;;;;;;5124169;28;20191;-70
2022/01/17 08:28:18;;;;;;;18.00;11.25;;;;;;;;;;5124290;28;20207;-70
2022/01/17 08:30:45;;;;;;;17.48;10.85;;;;;;;;;;5124215;28;20394;-69
2022/01/17 08:33:11;;;;;;;16.70;10.63;;;;;;;;;;5123993;28;20392;-68
2022/01/17 08:35:39;;;;;;;17.40;11.68;;;;;;;;;;5123942;28;20195;-68
2022/01/17 08:38:05;;;;;;;19.95;11.52;;;;;;;;;;5124044;28;20240;-68
2022/01/17 08:40:32;;;;;;;19.00;11.05;;;;;;;;;;5123957;28;20420;-68
2022/01/17 08:42:59;;;;;;;15.80;11.57;;;;;;;;;;5123791;28;20223;-71
2022/01/17 08:45:26;;;;;;;13.25;11.07;;;;;;;;;;5123839;28;20215;-69
2022/01/17 08:47:53;;;;;;;12.45;10.27;;;;;;;;;;5123841;28;20195;-69
2022/01/17 08:50:20;;;;;;;14.82;10.52;;;;;;;;;;5124107;28;20202;-69
2022/01/17 08:52:48;;;;;;;13.73;9.80;;;;;;;;;;5124054;28;20198;-69
2022/01/17 08:55:15;;;;;;;12.65;9.63;;;;;;;;;;5123631;28;20500;-70
2022/01/17 08:57:41;;;;;;;12.27;9.63;;;;;;;;;;5124197;28;20495;-70
2022/01/17 09:00:10;;;;;;;14.48;10.23;;;;;;;;;;5123647;28;20195;-71
2022/01/17 09:02:36;;;;;;;12.85;8.93;;;;;;;;;;5123321;28;20215;-71
2022/01/17 09:05:06;;;;;;;15.27;8.40;;;;;;;;;;5123549;28;20271;-71
2022/01/17 09:07:32;;;;;;;11.55;7.10;;;;;;;;;;5123259;28;20191;-71
2022/01/17 09:10:00;;;;;;;11.10;7.55;;;;;;;;;;5123490;28;20417;-71
2022/01/17 09:12:27;;;;;;;5.75;5.25;;;;;;;;;;5123523;28;20222;-72
2022/01/17 09:14:53;;;;;;;11.68;5.22;;;;;;;;;;5123043;28;20190;-70
2022/01/17 09:17:20;;;;;;;5.57;5.07;;;;;;;;;;5123227;28;20525;-70
2022/01/17 09:19:48;;;;;;;6.07;5.05;;;;;;;;;;5123251;28;20520;-71
2022/01/17 09:22:15;;;;;;;5.18;4.70;;;;;;;;;;5123500;28;20249;-72
2022/01/17 09:24:41;;;;;;;5.60;4.95;;;;;;;;;;5123176;28;20195;-71
2022/01/17 09:27:15;;;;;;;5.90;5.28;;;;;;;;;;5123698;28;20195;-72
2022/01/17 09:29:41;;;;;;;6.32;5.13;;;;;;;;;;5123740;28;20190;-73
2022/01/17 09:32:09;;;;;;;5.32;4.88;;;;;;;;;;5122963;28;20387;-72
2022/01/17 09:34:35;;;;;;;5.30;4.90;;;;;;;;;;5123450;28;20494;-72
2022/01/17 09:37:01;;;;;;;7.43;5.13;;;;;;;;;;5123419;28;20194;-71
2022/01/17 09:39:28;;;;;;;6.55;4.88;;;;;;;;;;5124006;28;20422;-70
2022/01/17 09:41:58;;;;;;;4.97;4.55;;;;;;;;;;5123486;28;20567;-69
2022/01/17 09:44:26;;;;;;;5.30;4.80;;;;;;;;;;5123289;28;20522;-68
2022/01/17 09:46:55;;;;;;;7.45;5.22;;;;;;;;;;5123132;28;20234;-68
2022/01/17 09:49:25;;;;;;;8.25;5.30;;;;;;;;;;5123305;28;20195;-68
2022/01/17 09:52:06;;;;;;;4.90;4.50;;;;;;;;;;5122904;28;20258;-69
2022/01/17 09:54:35;;;;;;;9.27;4.88;;;;;;;;;;5123134;28;20191;-71
2022/01/17 09:57:06;;;;;;;7.05;5.20;;;;;;;;;;5123153;28;20202;-70
2022/01/17 09:59:37;;;;;;;5.78;5.18;;;;;;;;;;5123550;28;20220;-70
2022/01/17 10:02:06;;;;;;;5.13;4.68;;;;;;;;;;5123547;28;20209;-68
2022/01/17 10:04:33;;;;;;;5.25;4.78;;;;;;;;;;5122852;28;20216;-68
2022/01/17 10:07:01;;;;;;;5.35;4.80;;;;;;;;;;5123244;28;20552;-69
2022/01/17 10:09:28;;;;;;;5.38;4.88;;;;;;;;;;5122771;28;20201;-69
2022/01/17 10:12:00;;;;;;;5.20;4.65;;;;;;;;;;5122882;28;20413;-70
2022/01/17 10:14:28;;;;;;;4.57;4.28;;;;;;;;;;5123022;28;20202;-71
2022/01/17 10:16:56;;;;;;;9.48;4.80;;;;;;;;;;5122818;28;20199;-70
2022/01/17 10:19:25;;;;;;;6.43;4.95;;;;;;;;;;5122985;28;20195;-70
2022/01/17 10:21:55;;;;;;;5.60;4.88;;;;;;;;;;5122785;28;20188;-69
2022/01/17 10:24:25;;;;;;;4.50;4.10;;;;;;;;;;5122478;28;20535;-68
2022/01/17 10:27:07;;;;;;;6.60;4.70;;;;;;;;;;5122657;28;20197;-70
2022/01/17 10:29:55;;;;;;;8.48;4.95;;;;;;;;;;5122734;28;20205;-70
2022/01/17 10:35:12;;;;;;;5.28;3.90;;;;;;;;;;5122765;28;20244;-72
2022/01/17 10:37:40;;;;;;;4.65;3.80;;;;;;;;;;5122454;28;20199;-72
2022/01/17 10:40:20;;;;;;;4.28;3.88;;;;;;;;;;5122645;28;20194;-71
2022/01/17 10:42:48;;;;;;;7.47;4.15;;;;;;;;;;5122456;28;20564;-71
2022/01/17 10:45:16;;;;;;;3.90;3.50;;;;;;;;;;5125545;28;20229;-71
2022/01/17 10:47:45;;;;;;;3.97;3.60;;;;;;;;;;5126596;28;20517;-71
2022/01/17 10:50:12;;;;;;;3.30;3.03;;;;;;;;;;5126483;28;20198;-71
2022/01/17 10:52:40;;;;;;;4.28;3.75;;;;;;;;;;5126628;28;20195;-69
2022/01/17 10:55:15;;;;;;;3.45;3.25;;;;;;;;;;5127198;28;20499;-73
2022/01/17 10:57:43;;;;;;;3.72;3.35;;;;;;;;;;5126422;28;20202;-68
2022/01/17 11:00:11;;;;;;;3.67;3.38;;;;;;;;;;5126499;28;20196;-71
2022/01/17 11:02:39;;;;;;;3.63;3.33;;;;;;;;;;5126519;28;20211;-70
2022/01/17 11:05:10;;;;;;;3.63;3.33;;;;;;;;;;5125866;28;20207;-68
2022/01/17 11:07:49;;;;;;;4.53;3.72;;;;;;;;;;5126272;28;20215;-70
2022/01/17 11:10:18;;;;;;;4.32;3.53;;;;;;;;;;5125539;28;20194;-70
2022/01/17 11:12:44;;;;;;;3.55;3.35;;;;;;;;;;5126522;28;20205;-70
2022/01/17 11:15:11;;;;;;;4.10;3.80;;;;;;;;;;5126091;28;20195;-68
2022/01/17 11:17:47;;;;;;;4.35;3.95;;;;;;;;;;5126282;28;20368;-71
2022/01/17 11:20:16;;;;;;;4.18;3.88;;;;;;;;;;5125033;28;20294;-72
2022/01/17 11:22:42;;;;;;;5.55;4.38;;;;;;;;;;5126813;28;20241;-71
2022/01/17 11:25:10;;;;;;;4.15;3.85;;;;;;;;;;5125938;28;20366;-71
2022/01/17 11:27:37;;;;;;;4.22;3.92;;;;;;;;;;5125636;28;20503;-71
2022/01/17 11:30:05;;;;;;;4.80;4.47;;;;;;;;;;5126078;28;20217;-69
2022/01/17 11:32:31;;;;;;;5.07;4.55;;;;;;;;;;5125745;28;20600;-69
2022/01/17 11:35:01;;;;;;;5.70;5.20;;;;;;;;;;5125327;28;20195;-69
2022/01/17 11:37:32;;;;;;;5.32;4.82;;;;;;;;;;5125950;28;20415;-70
2022/01/17 11:39:59;;;;;;;6.35;5.30;;;;;;;;;;5125708;28;20248;-71
2022/01/17 11:42:29;;;;;;;5.22;4.78;;;;;;;;;;5125689;28;20243;-71
2022/01/17 11:44:56;;;;;;;6.53;5.25;;;;;;;;;;5125496;28;20218;-71
2022/01/17 11:47:37;;;;;;;7.25;5.82;;;;;;;;;;5125690;28;20328;-71
2022/01/17 11:50:18;;;;;;;5.97;5.47;;;;;;;;;;5125230;28;20195;-71
2022/01/17 11:52:46;;;;;;;6.13;5.53;;;;;;;;;;5125204;28;20191;-71
2022/01/17 11:55:12;;;;;;;6.28;5.68;;;;;;;;;;5124605;28;20432;-71
2022/01/17 11:57:43;;;;;;;6.70;6.10;;;;;;;;;;5125444;28;20196;-71
2022/01/17 12:00:28;;;;;;;6.78;6.13;;;;;;;;;;5125500;28;20503;-71
2022/01/17 12:03:16;;;;;;;6.85;6.25;;;;;;;;;;5125018;28;20214;-69
2022/01/17 12:05:45;;;;;;;9.40;5.88;;;;;;;;;;5124957;28;20202;-67
2022/01/17 12:08:22;;;;;;;5.65;5.15;;;;;;;;;;5125256;28;20195;-70
2022/01/17 12:10:53;;;;;;;6.53;5.88;;;;;;;;;;5126112;28;20183;-70
2022/01/17 12:13:36;;;;;;;7.22;6.53;;;;;;;;;;5125523;28;20204;-70
2022/01/17 12:16:07;;;;;;;7.05;6.35;;;;;;;;;;5125769;28;20184;-70
2022/01/17 12:18:34;;;;;;;6.78;6.07;;;;;;;;;;5124981;28;20450;-68
2022/01/17 12:21:15;;;;;;;11.52;6.80;;;;;;;;;;5124553;28;20202;-68
2022/01/17 12:23:43;;;;;;;11.40;7.10;;;;;;;;;;5124344;28;20214;-68
2022/01/17 12:26:24;;;;;;;10.75;6.97;;;;;;;;;;5124622;28;20264;-71
2022/01/17 12:28:51;;;;;;;9.90;7.03;;;;;;;;;;5121620;28;20195;-71
2022/01/17 12:31:36;;;;;;;15.57;7.50;;;;;;;;;;5124577;28;20226;-71
2022/01/17 12:34:14;;;;;;;11.93;8.45;;;;;;;;;;5124467;28;20194;-71
2022/01/17 12:36:42;;;;;;;26.83;10.18;;;;;;;;;;5124466;28;20205;-72
2022/01/17 12:39:14;;;;;;;10.20;7.88;;;;;;;;;;5124277;28;20187;-70
2022/01/17 12:41:42;;;;;;;23.88;8.85;;;;;;;;;;5124216;28;20202;-72
2022/01/17 12:44:15;;;;;;;12.38;7.72;;;;;;;;;;5124338;28;20219;-70
2022/01/17 12:46:42;;;;;;;12.60;9.02;;;;;;;;;;5123970;28;20195;-71
2022/01/17 12:49:09;;;;;;;13.48;9.82;;;;;;;;;;5124136;28;20203;-71
2022/01/17 12:51:35;;;;;;;11.25;8.25;;;;;;;;;;5124074;28;20202;-70
2022/01/17 12:54:11;;;;;;;11.90;8.18;;;;;;;;;;5124259;28;20198;-72
2022/01/17 12:56:43;;;;;;;13.32;7.00;;;;;;;;;;5123936;28;20197;-73
2022/01/17 12:59:10;;;;;;;9.95;5.85;;;;;;;;;;5123958;28;20189;-71
2022/01/17 13:01:40;;;;;;;4.95;4.55;;;;;;;;;;5124094;28;20203;-71
2022/01/17 13:04:09;;;;;;;6.53;5.90;;;;;;;;;;5123884;28;20226;-72
2022/01/17 13:06:35;;;;;;;5.82;5.32;;;;;;;;;;5122857;28;20237;-71
2022/01/17 13:09:08;;;;;;;4.40;4.20;;;;;;;;;;5123873;28;20203;-72
2022/01/17 13:11:40;;;;;;;5.80;5.30;;;;;;;;;;5123723;28;20412;-71
2022/01/17 13:14:14;;;;;;;7.13;4.97;;;;;;;;;;5123948;28;20180;-72
2022/01/17 13:16:40;;;;;;;5.60;4.82;;;;;;;;;;5123654;28;20468;-72
2022/01/17 13:19:08;;;;;;;5.10;3.42;;;;;;;;;;5123666;28;20210;-72
2022/01/17 13:21:37;;;;;;;4.07;3.78;;;;;;;;;;5123211;28;20209;-72
2022/01/17 13:24:14;;;;;;;6.00;4.35;;;;;;;;;;5123412;28;20241;-72
2022/01/17 13:26:42;;;;;;;3.88;3.58;;;;;;;;;;5123252;28;20195;-72
2022/01/17 13:29:09;;;;;;;3.08;2.88;;;;;;;;;;5123334;28;20191;-71
2022/01/17 13:31:40;;;;;;;2.92;2.83;;;;;;;;;;5123238;28;20265;-71
2022/01/17 13:34:11;;;;;;;3.80;3.50;;;;;;;;;;5123416;28;20239;-71
2022/01/17 13:36:38;;;;;;;7.00;4.03;;;;;;;;;;5123220;28;20494;-71
2022/01/17 13:39:06;;;;;;;4.22;3.30;;;;;;;;;;5123739;28;20202;-72
2022/01/17 13:41:33;;;;;;;3.50;3.25;;;;;;;;;;5123112;28;20491;-72
2022/01/17 13:44:00;;;;;;;3.33;3.03;;;;;;;;;;5123045;28;20238;-70
2022/01/17 13:46:26;;;;;;;4.88;3.40;;;;;;;;;;5122705;28;20218;-71
2022/01/17 13:48:54;;;;;;;3.03;2.50;;;;;;;;;;5122900;28;20211;-71
2022/01/17 13:51:25;;;;;;;2.70;2.47;;;;;;;;;;5122857;28;20194;-71
2022/01/17 13:53:53;;;;;;;4.30;2.75;;;;;;;;;;5122757;28;20213;-71
2022/01/17 13:56:20;;;;;;;6.50;3.70;;;;;;;;;;5122636;28;20195;-71
2022/01/17 13:58:51;;;;;;;3.60;3.00;;;;;;;;;;5123131;28;20191;-71
2022/01/17 14:01:17;;;;;;;5.80;2.90;;;;;;;;;;5122887;28;20274;-71
2022/01/17 14:03:44;;;;;;;3.33;3.03;;;;;;;;;;5122977;28;20215;-71
2022/01/17 14:06:14;;;;;;;2.20;2.10;;;;;;;;;;5122765;28;20217;-71
2022/01/17 14:08:42;;;;;;;2.75;2.55;;;;;;;;;;5122960;28;20506;-71
2022/01/17 14:11:09;;;;;;;3.20;2.17;;;;;;;;;;5122649;28;20195;-71
2022/01/17 14:13:37;;;;;;;2.17;2.08;;;;;;;;;;5122732;28;20191;-71
2022/01/17 14:16:17;;;;;;;3.80;2.35;;;;;;;;;;5122448;28;20195;-71
2022/01/17 14:18:44;;;;;;;3.08;2.40;;;;;;;;;;5122602;28;20183;-70
2022/01/17 14:21:21;;;;;;;4.18;2.45;;;;;;;;;;5122472;28;20425;-70
2022/01/17 14:23:48;;;;;;;2.20;2.00;;;;;;;;;;5122434;28;20222;-68
2022/01/17 14:26:24;;;;;;;4.85;2.03;;;;;;;;;;5122357;28;20195;-69
2022/01/17 14:29:01;;;;;;;;;;;;;;;;;;;;;
2022/01/17 14:31:31;;;;;;;4.63;2.20;;;;;;;;;;5121486;28;20233;-70
2022/01/17 14:34:08;;;;;;;2.95;1.67;;;;;;;;;;5122929;28;20199;-70
2022/01/17 14:36:36;;;;;;;2.10;2.00;;;;;;;;;;5122664;28;20518;-69
2022/01/17 14:39:05;;;;;;;2.17;2.05;;;;;;;;;;5122320;28;20293;-69
2022/01/17 14:41:34;;;;;;;2.50;2.20;;;;;;;;;;5122839;28;20198;-69
2022/01/17 14:44:04;;;;;;;3.25;2.03;;;;;;;;;;5122635;28;20530;-69
2022/01/17 14:46:30;;;;;;;2.13;2.03;;;;;;;;;;5122275;28;20230;-69
2022/01/17 14:48:57;;;;;;;2.72;2.25;;;;;;;;;;5122523;28;20203;-70